Snellman, Minnesota
Current Conditions -  °F | °C
As of 11:16 AM on Friday 28 Nov 2014 (Local Time) from KPKD Reporting Station
Overcast Overcast  
Wind Chill: -2°   Ceiling: 1500
Heat Index: 11°   Visibility: 10mi
Dew Point:   Wind: 9mph
Humidity: 81%   Direction: 130°SE
Pressure: 29.88"   Gusts: NA
Location:  46.9347°N, 95.2252°W
Report Text: KPKD 281716Z AUTO 13008KT 10SM BKN015 OVC050 M12/M14 A2988 RMK AO2 T11171144
Loading
Personal Weather Stations






























Interactive Weather Map New forecast layout! Learn more

10-Day Weather Forecast

Advertisements
Track Severe Weather on mobile